sensor_id;sensor_type;location;lat;lon;timestamp;P1;durP1;ratioP1;P2;durP2;ratioP2
54328;SDS011;40710;51.120;13.136;2024-01-30T00:01:39;9.59;;;9.49;;
54328;SDS011;40710;51.120;13.136;2024-01-30T00:04:03;9.57;;;9.41;;
54328;SDS011;40710;51.120;13.136;2024-01-30T00:06:28;9.92;;;9.77;;
54328;SDS011;40710;51.120;13.136;2024-01-30T00:08:52;10.37;;;10.16;;
54328;SDS011;40710;51.120;13.136;2024-01-30T00:11:17;10.09;;;9.93;;
54328;SDS011;40710;51.120;13.136;2024-01-30T00:13:42;10.09;;;9.97;;
54328;SDS011;40710;51.120;13.136;2024-01-30T00:16:06;10.15;;;10.07;;
54328;SDS011;40710;51.120;13.136;2024-01-30T00:18:33;10.93;;;10.82;;
54328;SDS011;40710;51.120;13.136;2024-01-30T00:20:57;10.61;;;10.46;;
54328;SDS011;40710;51.120;13.136;2024-01-30T00:23:22;11.22;;;10.94;;
54328;SDS011;40710;51.120;13.136;2024-01-30T00:25:46;11.14;;;10.81;;
54328;SDS011;40710;51.120;13.136;2024-01-30T00:28:11;10.76;;;10.57;;
54328;SDS011;40710;51.120;13.136;2024-01-30T00:30:36;10.62;;;10.50;;
54328;SDS011;40710;51.120;13.136;2024-01-30T00:33:00;10.78;;;10.43;;
54328;SDS011;40710;51.120;13.136;2024-01-30T00:35:24;10.80;;;10.67;;
54328;SDS011;40710;51.120;13.136;2024-01-30T00:37:49;10.37;;;10.24;;
54328;SDS011;40710;51.120;13.136;2024-01-30T00:40:14;10.70;;;10.53;;
54328;SDS011;40710;51.120;13.136;2024-01-30T00:42:39;10.91;;;10.74;;
54328;SDS011;40710;51.120;13.136;2024-01-30T00:45:04;10.41;;;10.27;;
54328;SDS011;40710;51.120;13.136;2024-01-30T00:47:30;10.61;;;10.46;;
54328;SDS011;40710;51.120;13.136;2024-01-30T00:49:57;10.34;;;10.18;;
54328;SDS011;40710;51.120;13.136;2024-01-30T00:52:21;10.25;;;10.12;;
54328;SDS011;40710;51.120;13.136;2024-01-30T00:54:46;11.25;;;11.00;;
54328;SDS011;40710;51.120;13.136;2024-01-30T00:57:10;10.62;;;10.40;;
54328;SDS011;40710;51.120;13.136;2024-01-30T00:59:35;11.07;;;10.88;;
54328;SDS011;40710;51.120;13.136;2024-01-30T01:02:00;10.73;;;10.62;;
54328;SDS011;40710;51.120;13.136;2024-01-30T01:04:24;10.82;;;10.70;;
54328;SDS011;40710;51.120;13.136;2024-01-30T01:06:50;10.90;;;10.79;;
54328;SDS011;40710;51.120;13.136;2024-01-30T01:09:15;10.83;;;10.62;;
54328;SDS011;40710;51.120;13.136;2024-01-30T01:11:40;11.01;;;10.77;;
54328;SDS011;40710;51.120;13.136;2024-01-30T01:14:04;11.07;;;10.89;;
54328;SDS011;40710;51.120;13.136;2024-01-30T01:16:29;11.00;;;10.80;;
54328;SDS011;40710;51.120;13.136;2024-01-30T01:18:53;10.75;;;10.62;;
54328;SDS011;40710;51.120;13.136;2024-01-30T01:21:18;10.49;;;10.40;;
54328;SDS011;40710;51.120;13.136;2024-01-30T01:23:42;10.60;;;10.47;;
54328;SDS011;40710;51.120;13.136;2024-01-30T01:26:07;11.02;;;10.96;;
54328;SDS011;40710;51.120;13.136;2024-01-30T01:28:33;10.64;;;10.45;;
54328;SDS011;40710;51.120;13.136;2024-01-30T01:30:58;11.03;;;10.86;;
54328;SDS011;40710;51.120;13.136;2024-01-30T01:33:29;11.26;;;11.14;;
54328;SDS011;40710;51.120;13.136;2024-01-30T01:35:53;10.87;;;10.71;;
54328;SDS011;40710;51.120;13.136;2024-01-30T01:38:18;11.45;;;11.34;;
54328;SDS011;40710;51.120;13.136;2024-01-30T01:40:42;11.26;;;11.15;;
54328;SDS011;40710;51.120;13.136;2024-01-30T01:43:08;11.54;;;11.33;;
54328;SDS011;40710;51.120;13.136;2024-01-30T01:45:32;11.32;;;11.14;;
54328;SDS011;40710;51.120;13.136;2024-01-30T01:47:57;11.43;;;11.21;;
54328;SDS011;40710;51.120;13.136;2024-01-30T01:50:21;11.44;;;11.16;;
54328;SDS011;40710;51.120;13.136;2024-01-30T01:52:47;10.97;;;10.86;;
54328;SDS011;40710;51.120;13.136;2024-01-30T01:55:12;11.20;;;11.01;;
54328;SDS011;40710;51.120;13.136;2024-01-30T01:57:38;11.67;;;11.47;;
54328;SDS011;40710;51.120;13.136;2024-01-30T02:00:03;11.82;;;11.58;;
54328;SDS011;40710;51.120;13.136;2024-01-30T02:02:30;11.51;;;11.38;;
54328;SDS011;40710;51.120;13.136;2024-01-30T02:04:59;11.78;;;11.58;;
54328;SDS011;40710;51.120;13.136;2024-01-30T02:07:24;11.85;;;11.70;;
54328;SDS011;40710;51.120;13.136;2024-01-30T02:09:48;11.58;;;11.42;;
54328;SDS011;40710;51.120;13.136;2024-01-30T02:12:13;11.65;;;11.52;;
54328;SDS011;40710;51.120;13.136;2024-01-30T02:14:46;11.47;;;11.30;;
54328;SDS011;40710;51.120;13.136;2024-01-30T02:17:12;12.09;;;11.84;;
54328;SDS011;40710;51.120;13.136;2024-01-30T02:19:37;11.75;;;11.55;;
54328;SDS011;40710;51.120;13.136;2024-01-30T02:22:02;11.81;;;11.64;;
54328;SDS011;40710;51.120;13.136;2024-01-30T02:24:27;11.31;;;11.19;;
54328;SDS011;40710;51.120;13.136;2024-01-30T02:26:51;11.12;;;10.96;;
54328;SDS011;40710;51.120;13.136;2024-01-30T02:29:16;11.84;;;11.68;;
54328;SDS011;40710;51.120;13.136;2024-01-30T02:31:40;11.06;;;10.98;;
54328;SDS011;40710;51.120;13.136;2024-01-30T02:34:05;11.45;;;11.29;;
54328;SDS011;40710;51.120;13.136;2024-01-30T02:36:30;11.56;;;11.44;;
54328;SDS011;40710;51.120;13.136;2024-01-30T02:38:54;11.65;;;11.53;;
54328;SDS011;40710;51.120;13.136;2024-01-30T02:41:19;11.29;;;11.10;;
54328;SDS011;40710;51.120;13.136;2024-01-30T02:43:43;11.79;;;11.64;;
54328;SDS011;40710;51.120;13.136;2024-01-30T02:46:08;11.00;;;10.90;;
54328;SDS011;40710;51.120;13.136;2024-01-30T02:48:33;12.07;;;11.94;;
54328;SDS011;40710;51.120;13.136;2024-01-30T02:50:57;11.38;;;11.28;;
54328;SDS011;40710;51.120;13.136;2024-01-30T02:53:22;11.60;;;11.46;;
54328;SDS011;40710;51.120;13.136;2024-01-30T02:55:46;12.46;;;12.17;;
54328;SDS011;40710;51.120;13.136;2024-01-30T02:58:11;12.01;;;11.80;;
54328;SDS011;40710;51.120;13.136;2024-01-30T03:00:36;12.12;;;11.88;;
54328;SDS011;40710;51.120;13.136;2024-01-30T03:03:00;11.88;;;11.70;;
54328;SDS011;40710;51.120;13.136;2024-01-30T03:05:26;11.84;;;11.65;;
54328;SDS011;40710;51.120;13.136;2024-01-30T03:07:53;11.69;;;11.50;;
54328;SDS011;40710;51.120;13.136;2024-01-30T03:10:17;11.50;;;11.37;;
54328;SDS011;40710;51.120;13.136;2024-01-30T03:12:42;11.53;;;11.36;;
54328;SDS011;40710;51.120;13.136;2024-01-30T03:15:07;11.85;;;11.59;;
54328;SDS011;40710;51.120;13.136;2024-01-30T03:17:33;11.98;;;11.65;;
54328;SDS011;40710;51.120;13.136;2024-01-30T03:19:58;11.75;;;11.58;;
54328;SDS011;40710;51.120;13.136;2024-01-30T03:22:23;11.60;;;11.40;;
54328;SDS011;40710;51.120;13.136;2024-01-30T03:24:48;11.78;;;11.60;;
54328;SDS011;40710;51.120;13.136;2024-01-30T03:27:12;11.63;;;11.47;;
54328;SDS011;40710;51.120;13.136;2024-01-30T03:29:37;11.76;;;11.55;;
54328;SDS011;40710;51.120;13.136;2024-01-30T03:32:01;11.83;;;11.70;;
54328;SDS011;40710;51.120;13.136;2024-01-30T03:34:28;11.70;;;11.56;;
54328;SDS011;40710;51.120;13.136;2024-01-30T03:36:52;11.31;;;11.17;;
54328;SDS011;40710;51.120;13.136;2024-01-30T03:39:17;11.42;;;11.29;;
54328;SDS011;40710;51.120;13.136;2024-01-30T03:41:42;11.55;;;11.38;;
54328;SDS011;40710;51.120;13.136;2024-01-30T03:44:07;11.19;;;11.03;;
54328;SDS011;40710;51.120;13.136;2024-01-30T03:46:32;10.90;;;10.71;;
54328;SDS011;40710;51.120;13.136;2024-01-30T03:48:56;10.98;;;10.77;;
54328;SDS011;40710;51.120;13.136;2024-01-30T03:51:21;10.44;;;10.25;;
54328;SDS011;40710;51.120;13.136;2024-01-30T03:53:45;10.98;;;10.84;;
54328;SDS011;40710;51.120;13.136;2024-01-30T03:56:10;11.16;;;11.01;;
54328;SDS011;40710;51.120;13.136;2024-01-30T03:58:35;10.71;;;10.53;;
54328;SDS011;40710;51.120;13.136;2024-01-30T04:00:59;10.92;;;10.67;;
54328;SDS011;40710;51.120;13.136;2024-01-30T04:03:24;10.91;;;10.68;;
54328;SDS011;40710;51.120;13.136;2024-01-30T04:05:49;11.35;;;11.19;;
54328;SDS011;40710;51.120;13.136;2024-01-30T04:08:13;11.01;;;10.91;;
54328;SDS011;40710;51.120;13.136;2024-01-30T04:10:38;11.75;;;11.50;;
54328;SDS011;40710;51.120;13.136;2024-01-30T04:13:02;11.12;;;10.89;;
54328;SDS011;40710;51.120;13.136;2024-01-30T04:15:30;11.19;;;10.98;;
54328;SDS011;40710;51.120;13.136;2024-01-30T04:17:57;11.29;;;11.11;;
54328;SDS011;40710;51.120;13.136;2024-01-30T04:20:23;11.27;;;11.15;;
54328;SDS011;40710;51.120;13.136;2024-01-30T04:22:47;11.27;;;11.15;;
54328;SDS011;40710;51.120;13.136;2024-01-30T04:25:12;11.11;;;10.89;;
54328;SDS011;40710;51.120;13.136;2024-01-30T04:27:37;11.04;;;10.82;;
54328;SDS011;40710;51.120;13.136;2024-01-30T04:30:02;10.85;;;10.59;;
54328;SDS011;40710;51.120;13.136;2024-01-30T04:32:27;10.96;;;10.78;;
54328;SDS011;40710;51.120;13.136;2024-01-30T04:34:51;10.68;;;10.55;;
54328;SDS011;40710;51.120;13.136;2024-01-30T04:37:16;10.53;;;10.40;;
54328;SDS011;40710;51.120;13.136;2024-01-30T04:39:40;13.10;;;12.76;;
54328;SDS011;40710;51.120;13.136;2024-01-30T04:42:05;12.60;;;12.02;;
54328;SDS011;40710;51.120;13.136;2024-01-30T04:44:29;10.46;;;10.38;;
54328;SDS011;40710;51.120;13.136;2024-01-30T04:46:54;11.19;;;11.10;;
54328;SDS011;40710;51.120;13.136;2024-01-30T04:49:23;11.37;;;11.21;;
54328;SDS011;40710;51.120;13.136;2024-01-30T04:51:47;11.61;;;11.51;;
54328;SDS011;40710;51.120;13.136;2024-01-30T04:54:12;11.89;;;11.76;;
54328;SDS011;40710;51.120;13.136;2024-01-30T04:56:36;12.41;;;12.25;;
54328;SDS011;40710;51.120;13.136;2024-01-30T04:59:02;11.70;;;11.47;;
54328;SDS011;40710;51.120;13.136;2024-01-30T05:01:26;11.74;;;11.50;;
54328;SDS011;40710;51.120;13.136;2024-01-30T05:03:51;11.20;;;11.03;;
54328;SDS011;40710;51.120;13.136;2024-01-30T05:06:25;11.06;;;10.93;;
54328;SDS011;40710;51.120;13.136;2024-01-30T05:08:50;11.67;;;11.45;;
54328;SDS011;40710;51.120;13.136;2024-01-30T05:11:14;10.84;;;10.65;;
54328;SDS011;40710;51.120;13.136;2024-01-30T05:13:39;12.89;;;12.66;;
54328;SDS011;40710;51.120;13.136;2024-01-30T05:16:04;11.80;;;11.59;;
54328;SDS011;40710;51.120;13.136;2024-01-30T05:18:28;11.28;;;11.12;;
54328;SDS011;40710;51.120;13.136;2024-01-30T05:20:53;10.35;;;10.19;;
54328;SDS011;40710;51.120;13.136;2024-01-30T05:23:18;10.81;;;10.63;;
54328;SDS011;40710;51.120;13.136;2024-01-30T05:25:42;10.39;;;10.23;;
54328;SDS011;40710;51.120;13.136;2024-01-30T05:28:07;9.53;;;9.47;;
54328;SDS011;40710;51.120;13.136;2024-01-30T05:30:31;9.98;;;9.89;;
54328;SDS011;40710;51.120;13.136;2024-01-30T05:32:56;10.12;;;10.00;;
54328;SDS011;40710;51.120;13.136;2024-01-30T05:35:20;9.57;;;9.45;;
54328;SDS011;40710;51.120;13.136;2024-01-30T05:37:45;9.52;;;9.42;;
54328;SDS011;40710;51.120;13.136;2024-01-30T05:40:10;9.43;;;9.28;;
54328;SDS011;40710;51.120;13.136;2024-01-30T05:42:35;9.56;;;9.45;;
54328;SDS011;40710;51.120;13.136;2024-01-30T05:45:00;10.02;;;9.93;;
54328;SDS011;40710;51.120;13.136;2024-01-30T05:47:24;9.70;;;9.56;;
54328;SDS011;40710;51.120;13.136;2024-01-30T05:49:49;9.88;;;9.66;;
54328;SDS011;40710;51.120;13.136;2024-01-30T05:52:13;10.09;;;9.73;;
54328;SDS011;40710;51.120;13.136;2024-01-30T05:54:39;10.09;;;9.89;;
54328;SDS011;40710;51.120;13.136;2024-01-30T05:57:03;9.99;;;9.84;;
54328;SDS011;40710;51.120;13.136;2024-01-30T05:59:28;10.55;;;10.30;;
54328;SDS011;40710;51.120;13.136;2024-01-30T06:01:53;10.41;;;10.24;;
54328;SDS011;40710;51.120;13.136;2024-01-30T06:04:18;9.90;;;9.79;;
54328;SDS011;40710;51.120;13.136;2024-01-30T06:06:42;11.19;;;10.96;;
54328;SDS011;40710;51.120;13.136;2024-01-30T06:09:07;10.45;;;10.10;;
54328;SDS011;40710;51.120;13.136;2024-01-30T06:11:34;10.12;;;9.98;;
54328;SDS011;40710;51.120;13.136;2024-01-30T06:13:59;10.26;;;10.14;;
54328;SDS011;40710;51.120;13.136;2024-01-30T06:16:23;10.85;;;10.66;;
54328;SDS011;40710;51.120;13.136;2024-01-30T06:18:48;10.83;;;10.71;;
54328;SDS011;40710;51.120;13.136;2024-01-30T06:21:13;12.37;;;12.16;;
54328;SDS011;40710;51.120;13.136;2024-01-30T06:23:37;12.01;;;11.84;;
54328;SDS011;40710;51.120;13.136;2024-01-30T06:26:02;11.56;;;11.37;;
54328;SDS011;40710;51.120;13.136;2024-01-30T06:28:26;11.49;;;11.21;;
54328;SDS011;40710;51.120;13.136;2024-01-30T06:30:51;10.95;;;10.72;;
54328;SDS011;40710;51.120;13.136;2024-01-30T06:33:15;11.77;;;11.47;;
54328;SDS011;40710;51.120;13.136;2024-01-30T06:35:40;11.37;;;11.13;;
54328;SDS011;40710;51.120;13.136;2024-01-30T06:38:05;11.49;;;11.29;;
54328;SDS011;40710;51.120;13.136;2024-01-30T06:40:29;11.54;;;11.40;;
54328;SDS011;40710;51.120;13.136;2024-01-30T06:42:54;11.31;;;11.14;;
54328;SDS011;40710;51.120;13.136;2024-01-30T06:45:18;11.71;;;11.46;;
54328;SDS011;40710;51.120;13.136;2024-01-30T06:47:43;11.30;;;11.07;;
54328;SDS011;40710;51.120;13.136;2024-01-30T06:50:07;11.98;;;11.82;;
54328;SDS011;40710;51.120;13.136;2024-01-30T06:52:32;12.61;;;12.38;;
54328;SDS011;40710;51.120;13.136;2024-01-30T06:54:56;13.01;;;12.81;;
54328;SDS011;40710;51.120;13.136;2024-01-30T06:57:21;12.79;;;12.54;;
54328;SDS011;40710;51.120;13.136;2024-01-30T06:59:46;12.77;;;12.53;;
54328;SDS011;40710;51.120;13.136;2024-01-30T07:02:11;14.75;;;14.45;;
54328;SDS011;40710;51.120;13.136;2024-01-30T07:04:36;15.75;;;15.37;;
54328;SDS011;40710;51.120;13.136;2024-01-30T07:07:04;17.39;;;17.01;;
54328;SDS011;40710;51.120;13.136;2024-01-30T07:09:30;13.81;;;13.49;;
54328;SDS011;40710;51.120;13.136;2024-01-30T07:11:54;13.70;;;13.44;;
54328;SDS011;40710;51.120;13.136;2024-01-30T07:14:19;13.98;;;13.58;;
54328;SDS011;40710;51.120;13.136;2024-01-30T07:16:44;13.61;;;13.30;;
54328;SDS011;40710;51.120;13.136;2024-01-30T07:19:08;13.23;;;13.03;;
54328;SDS011;40710;51.120;13.136;2024-01-30T07:21:33;13.06;;;12.91;;
54328;SDS011;40710;51.120;13.136;2024-01-30T07:23:58;13.26;;;13.10;;
54328;SDS011;40710;51.120;13.136;2024-01-30T07:26:23;14.82;;;14.44;;
54328;SDS011;40710;51.120;13.136;2024-01-30T07:28:48;16.17;;;15.77;;
54328;SDS011;40710;51.120;13.136;2024-01-30T07:31:14;15.20;;;14.86;;
54328;SDS011;40710;51.120;13.136;2024-01-30T07:33:38;15.64;;;15.44;;
54328;SDS011;40710;51.120;13.136;2024-01-30T07:36:03;15.36;;;15.16;;
54328;SDS011;40710;51.120;13.136;2024-01-30T07:38:27;15.68;;;15.56;;
54328;SDS011;40710;51.120;13.136;2024-01-30T07:40:52;14.45;;;14.18;;
54328;SDS011;40710;51.120;13.136;2024-01-30T07:43:17;16.04;;;15.72;;
54328;SDS011;40710;51.120;13.136;2024-01-30T07:45:41;15.24;;;14.95;;
54328;SDS011;40710;51.120;13.136;2024-01-30T07:48:06;15.47;;;15.06;;
54328;SDS011;40710;51.120;13.136;2024-01-30T07:50:31;16.70;;;16.24;;
54328;SDS011;40710;51.120;13.136;2024-01-30T07:52:56;16.01;;;15.66;;
54328;SDS011;40710;51.120;13.136;2024-01-30T07:55:21;16.70;;;16.16;;
54328;SDS011;40710;51.120;13.136;2024-01-30T07:57:52;15.45;;;15.04;;
54328;SDS011;40710;51.120;13.136;2024-01-30T08:00:16;15.43;;;15.11;;
54328;SDS011;40710;51.120;13.136;2024-01-30T08:02:41;14.57;;;14.37;;
54328;SDS011;40710;51.120;13.136;2024-01-30T08:05:06;14.14;;;13.86;;
54328;SDS011;40710;51.120;13.136;2024-01-30T08:07:31;14.08;;;13.76;;
54328;SDS011;40710;51.120;13.136;2024-01-30T08:09:55;13.33;;;13.21;;
54328;SDS011;40710;51.120;13.136;2024-01-30T08:12:20;13.61;;;13.44;;
54328;SDS011;40710;51.120;13.136;2024-01-30T08:14:44;13.23;;;13.01;;
54328;SDS011;40710;51.120;13.136;2024-01-30T08:17:09;12.93;;;12.68;;
54328;SDS011;40710;51.120;13.136;2024-01-30T08:19:34;13.42;;;13.22;;
54328;SDS011;40710;51.120;13.136;2024-01-30T08:21:58;12.98;;;12.71;;
54328;SDS011;40710;51.120;13.136;2024-01-30T08:24:23;12.82;;;12.58;;
54328;SDS011;40710;51.120;13.136;2024-01-30T08:26:47;13.77;;;13.48;;
54328;SDS011;40710;51.120;13.136;2024-01-30T08:29:12;13.72;;;13.44;;
54328;SDS011;40710;51.120;13.136;2024-01-30T08:31:36;13.49;;;13.32;;
54328;SDS011;40710;51.120;13.136;2024-01-30T08:34:01;13.07;;;12.93;;
54328;SDS011;40710;51.120;13.136;2024-01-30T08:36:25;13.52;;;13.43;;
54328;SDS011;40710;51.120;13.136;2024-01-30T08:38:50;12.79;;;12.74;;
54328;SDS011;40710;51.120;13.136;2024-01-30T08:41:14;13.82;;;13.63;;
54328;SDS011;40710;51.120;13.136;2024-01-30T08:43:39;12.95;;;12.74;;
54328;SDS011;40710;51.120;13.136;2024-01-30T08:46:04;12.90;;;12.60;;
54328;SDS011;40710;51.120;13.136;2024-01-30T08:48:28;12.12;;;12.04;;
54328;SDS011;40710;51.120;13.136;2024-01-30T08:50:53;13.01;;;12.72;;
54328;SDS011;40710;51.120;13.136;2024-01-30T08:53:17;12.67;;;12.37;;
54328;SDS011;40710;51.120;13.136;2024-01-30T08:55:42;12.23;;;12.10;;
54328;SDS011;40710;51.120;13.136;2024-01-30T08:58:07;11.96;;;11.86;;
54328;SDS011;40710;51.120;13.136;2024-01-30T09:00:32;11.62;;;11.48;;
54328;SDS011;40710;51.120;13.136;2024-01-30T09:02:56;11.83;;;11.57;;
54328;SDS011;40710;51.120;13.136;2024-01-30T09:05:21;11.73;;;11.57;;
54328;SDS011;40710;51.120;13.136;2024-01-30T09:07:46;12.05;;;11.87;;
54328;SDS011;40710;51.120;13.136;2024-01-30T09:10:11;11.82;;;11.65;;
54328;SDS011;40710;51.120;13.136;2024-01-30T09:12:35;11.74;;;11.67;;
54328;SDS011;40710;51.120;13.136;2024-01-30T09:15:00;11.22;;;11.01;;
54328;SDS011;40710;51.120;13.136;2024-01-30T09:17:24;11.85;;;11.53;;
54328;SDS011;40710;51.120;13.136;2024-01-30T09:19:49;11.16;;;10.95;;
54328;SDS011;40710;51.120;13.136;2024-01-30T09:22:13;11.31;;;11.21;;
54328;SDS011;40710;51.120;13.136;2024-01-30T09:24:38;11.42;;;11.30;;
54328;SDS011;40710;51.120;13.136;2024-01-30T09:27:02;11.83;;;11.61;;
54328;SDS011;40710;51.120;13.136;2024-01-30T09:29:27;11.97;;;11.74;;
54328;SDS011;40710;51.120;13.136;2024-01-30T09:31:52;12.55;;;12.38;;
54328;SDS011;40710;51.120;13.136;2024-01-30T09:34:16;11.95;;;11.74;;
54328;SDS011;40710;51.120;13.136;2024-01-30T09:36:41;12.17;;;12.00;;
54328;SDS011;40710;51.120;13.136;2024-01-30T09:39:05;11.46;;;11.36;;
54328;SDS011;40710;51.120;13.136;2024-01-30T09:41:32;10.89;;;10.75;;
54328;SDS011;40710;51.120;13.136;2024-01-30T09:43:57;10.59;;;10.50;;
54328;SDS011;40710;51.120;13.136;2024-01-30T09:46:22;10.37;;;10.23;;
54328;SDS011;40710;51.120;13.136;2024-01-30T09:48:52;10.02;;;9.89;;
54328;SDS011;40710;51.120;13.136;2024-01-30T09:51:19;9.90;;;9.77;;
54328;SDS011;40710;51.120;13.136;2024-01-30T09:53:45;9.48;;;9.24;;
54328;SDS011;40710;51.120;13.136;2024-01-30T09:56:09;9.40;;;9.21;;
54328;SDS011;40710;51.120;13.136;2024-01-30T09:58:35;9.77;;;9.64;;
54328;SDS011;40710;51.120;13.136;2024-01-30T10:01:00;9.39;;;9.26;;
54328;SDS011;40710;51.120;13.136;2024-01-30T10:03:24;10.02;;;9.82;;
54328;SDS011;40710;51.120;13.136;2024-01-30T10:05:52;10.17;;;10.02;;
54328;SDS011;40710;51.120;13.136;2024-01-30T10:08:17;9.77;;;9.68;;
54328;SDS011;40710;51.120;13.136;2024-01-30T10:10:45;9.94;;;9.76;;
54328;SDS011;40710;51.120;13.136;2024-01-30T10:13:10;9.97;;;9.71;;
54328;SDS011;40710;51.120;13.136;2024-01-30T10:15:35;9.33;;;9.16;;
54328;SDS011;40710;51.120;13.136;2024-01-30T10:18:03;8.73;;;8.57;;
54328;SDS011;40710;51.120;13.136;2024-01-30T10:20:27;8.88;;;8.69;;
54328;SDS011;40710;51.120;13.136;2024-01-30T10:22:52;9.14;;;8.99;;
54328;SDS011;40710;51.120;13.136;2024-01-30T10:25:17;8.44;;;8.37;;
54328;SDS011;40710;51.120;13.136;2024-01-30T10:27:41;7.97;;;7.92;;
54328;SDS011;40710;51.120;13.136;2024-01-30T10:30:06;7.58;;;7.44;;
54328;SDS011;40710;51.120;13.136;2024-01-30T10:32:31;7.19;;;7.08;;
54328;SDS011;40710;51.120;13.136;2024-01-30T10:34:56;7.17;;;7.04;;
54328;SDS011;40710;51.120;13.136;2024-01-30T10:37:21;7.28;;;7.18;;
54328;SDS011;40710;51.120;13.136;2024-01-30T10:39:49;7.61;;;7.54;;
54328;SDS011;40710;51.120;13.136;2024-01-30T10:42:19;9.62;;;9.46;;
54328;SDS011;40710;51.120;13.136;2024-01-30T10:47:34;7.15;;;7.11;;
54328;SDS011;40710;51.120;13.136;2024-01-30T10:50:02;7.43;;;7.38;;
54328;SDS011;40710;51.120;13.136;2024-01-30T10:52:30;7.22;;;7.22;;
54328;SDS011;40710;51.120;13.136;2024-01-30T10:54:56;7.34;;;7.33;;
54328;SDS011;40710;51.120;13.136;2024-01-30T10:57:24;7.42;;;7.38;;
54328;SDS011;40710;51.120;13.136;2024-01-30T10:59:50;7.72;;;7.62;;
54328;SDS011;40710;51.120;13.136;2024-01-30T11:02:18;7.62;;;7.56;;
54328;SDS011;40710;51.120;13.136;2024-01-30T11:04:45;7.81;;;7.79;;
54328;SDS011;40710;51.120;13.136;2024-01-30T11:07:13;7.26;;;7.21;;
54328;SDS011;40710;51.120;13.136;2024-01-30T11:09:48;6.99;;;6.91;;
54328;SDS011;40710;51.120;13.136;2024-01-30T11:12:16;7.18;;;7.08;;
54328;SDS011;40710;51.120;13.136;2024-01-30T11:14:46;7.77;;;7.68;;
54328;SDS011;40710;51.120;13.136;2024-01-30T11:17:10;7.06;;;6.95;;
54328;SDS011;40710;51.120;13.136;2024-01-30T11:19:36;7.51;;;7.35;;
54328;SDS011;40710;51.120;13.136;2024-01-30T11:22:01;7.29;;;7.22;;
54328;SDS011;40710;51.120;13.136;2024-01-30T11:24:26;7.33;;;7.28;;
54328;SDS011;40710;51.120;13.136;2024-01-30T11:26:56;7.32;;;7.22;;
54328;SDS011;40710;51.120;13.136;2024-01-30T11:29:26;7.24;;;7.12;;
54328;SDS011;40710;51.120;13.136;2024-01-30T11:31:53;6.84;;;6.73;;
54328;SDS011;40710;51.120;13.136;2024-01-30T11:34:21;6.85;;;6.75;;
54328;SDS011;40710;51.120;13.136;2024-01-30T11:36:48;6.93;;;6.86;;
54328;SDS011;40710;51.120;13.136;2024-01-30T11:39:19;6.37;;;6.32;;
54328;SDS011;40710;51.120;13.136;2024-01-30T11:41:45;6.40;;;6.32;;
54328;SDS011;40710;51.120;13.136;2024-01-30T11:44:10;6.23;;;6.17;;
54328;SDS011;40710;51.120;13.136;2024-01-30T11:46:34;7.13;;;7.07;;
54328;SDS011;40710;51.120;13.136;2024-01-30T11:48:59;8.18;;;8.15;;
54328;SDS011;40710;51.120;13.136;2024-01-30T11:51:23;7.83;;;7.73;;
54328;SDS011;40710;51.120;13.136;2024-01-30T11:53:51;7.54;;;7.46;;
54328;SDS011;40710;51.120;13.136;2024-01-30T11:56:16;7.87;;;7.79;;
54328;SDS011;40710;51.120;13.136;2024-01-30T11:58:42;8.02;;;7.97;;
54328;SDS011;40710;51.120;13.136;2024-01-30T12:01:07;8.43;;;8.33;;
54328;SDS011;40710;51.120;13.136;2024-01-30T12:03:32;7.81;;;7.68;;
54328;SDS011;40710;51.120;13.136;2024-01-30T12:05:57;7.73;;;7.61;;
54328;SDS011;40710;51.120;13.136;2024-01-30T12:08:22;7.62;;;7.53;;
54328;SDS011;40710;51.120;13.136;2024-01-30T12:10:54;7.70;;;7.60;;
54328;SDS011;40710;51.120;13.136;2024-01-30T12:13:20;7.52;;;7.46;;
54328;SDS011;40710;51.120;13.136;2024-01-30T12:15:45;7.21;;;7.20;;
54328;SDS011;40710;51.120;13.136;2024-01-30T12:18:09;11.05;;;10.86;;
54328;SDS011;40710;51.120;13.136;2024-01-30T12:20:34;18.52;;;17.94;;
54328;SDS011;40710;51.120;13.136;2024-01-30T12:22:58;8.61;;;8.47;;
54328;SDS011;40710;51.120;13.136;2024-01-30T12:25:23;6.94;;;6.87;;
54328;SDS011;40710;51.120;13.136;2024-01-30T12:27:48;7.35;;;7.22;;
54328;SDS011;40710;51.120;13.136;2024-01-30T12:30:14;7.13;;;7.04;;
54328;SDS011;40710;51.120;13.136;2024-01-30T12:32:42;7.48;;;7.41;;
54328;SDS011;40710;51.120;13.136;2024-01-30T12:35:11;6.95;;;6.95;;
54328;SDS011;40710;51.120;13.136;2024-01-30T12:37:37;7.09;;;7.02;;
54328;SDS011;40710;51.120;13.136;2024-01-30T12:40:02;7.26;;;7.20;;
54328;SDS011;40710;51.120;13.136;2024-01-30T12:42:27;7.22;;;7.13;;
54328;SDS011;40710;51.120;13.136;2024-01-30T12:44:52;6.62;;;6.53;;
54328;SDS011;40710;51.120;13.136;2024-01-30T12:47:16;6.35;;;6.32;;
54328;SDS011;40710;51.120;13.136;2024-01-30T12:49:42;6.36;;;6.32;;
54328;SDS011;40710;51.120;13.136;2024-01-30T12:52:08;6.58;;;6.48;;
54328;SDS011;40710;51.120;13.136;2024-01-30T12:54:33;6.45;;;6.38;;
54328;SDS011;40710;51.120;13.136;2024-01-30T12:56:57;6.59;;;6.48;;
54328;SDS011;40710;51.120;13.136;2024-01-30T12:59:22;6.64;;;6.59;;
54328;SDS011;40710;51.120;13.136;2024-01-30T13:01:47;7.05;;;7.05;;
54328;SDS011;40710;51.120;13.136;2024-01-30T13:04:11;7.83;;;7.83;;
54328;SDS011;40710;51.120;13.136;2024-01-30T13:06:36;7.02;;;7.02;;
54328;SDS011;40710;51.120;13.136;2024-01-30T13:09:00;6.55;;;6.55;;
54328;SDS011;40710;51.120;13.136;2024-01-30T13:11:25;6.62;;;6.58;;
54328;SDS011;40710;51.120;13.136;2024-01-30T13:13:50;6.60;;;6.50;;
54328;SDS011;40710;51.120;13.136;2024-01-30T13:16:14;6.92;;;6.79;;
54328;SDS011;40710;51.120;13.136;2024-01-30T13:18:39;7.34;;;7.27;;
54328;SDS011;40710;51.120;13.136;2024-01-30T13:21:03;6.90;;;6.90;;
54328;SDS011;40710;51.120;13.136;2024-01-30T13:23:28;7.54;;;7.47;;
54328;SDS011;40710;51.120;13.136;2024-01-30T13:25:52;9.27;;;9.08;;
54328;SDS011;40710;51.120;13.136;2024-01-30T13:28:19;10.19;;;10.15;;
54328;SDS011;40710;51.120;13.136;2024-01-30T13:30:43;9.68;;;9.50;;
54328;SDS011;40710;51.120;13.136;2024-01-30T13:33:08;7.97;;;7.97;;
54328;SDS011;40710;51.120;13.136;2024-01-30T13:35:33;8.99;;;8.98;;
54328;SDS011;40710;51.120;13.136;2024-01-30T13:37:57;9.77;;;9.65;;
54328;SDS011;40710;51.120;13.136;2024-01-30T13:40:22;9.23;;;9.15;;
54328;SDS011;40710;51.120;13.136;2024-01-30T13:42:46;7.82;;;7.75;;
54328;SDS011;40710;51.120;13.136;2024-01-30T13:45:11;7.40;;;7.34;;
54328;SDS011;40710;51.120;13.136;2024-01-30T13:47:36;7.53;;;7.42;;
54328;SDS011;40710;51.120;13.136;2024-01-30T13:50:00;7.91;;;7.80;;
54328;SDS011;40710;51.120;13.136;2024-01-30T13:52:27;7.62;;;7.51;;
54328;SDS011;40710;51.120;13.136;2024-01-30T13:54:51;6.96;;;6.90;;
54328;SDS011;40710;51.120;13.136;2024-01-30T13:57:16;6.80;;;6.79;;
54328;SDS011;40710;51.120;13.136;2024-01-30T13:59:40;6.98;;;6.98;;
54328;SDS011;40710;51.120;13.136;2024-01-30T14:02:05;6.38;;;6.38;;
54328;SDS011;40710;51.120;13.136;2024-01-30T14:04:31;6.96;;;6.89;;
54328;SDS011;40710;51.120;13.136;2024-01-30T14:06:55;6.58;;;6.54;;
54328;SDS011;40710;51.120;13.136;2024-01-30T14:09:20;6.91;;;6.87;;